sensor_id;sensor_type;location;lat;lon;timestamp;P1;durP1;ratioP1;P2;durP2;ratioP2
70953;SDS011;58618;47.490;8.736;2023-08-01T00:01:13;8.32;;;4.47;;
70953;SDS011;58618;47.490;8.736;2023-08-01T00:04:01;7.43;;;4.45;;
70953;SDS011;58618;47.490;8.736;2023-08-01T00:06:48;5.40;;;3.50;;
70953;SDS011;58618;47.490;8.736;2023-08-01T00:09:36;7.72;;;4.13;;
70953;SDS011;58618;47.490;8.736;2023-08-01T00:12:24;7.03;;;4.20;;
70953;SDS011;58618;47.490;8.736;2023-08-01T00:15:12;6.35;;;3.83;;
70953;SDS011;58618;47.490;8.736;2023-08-01T00:17:59;7.43;;;3.90;;
70953;SDS011;58618;47.490;8.736;2023-08-01T00:20:46;7.35;;;3.90;;
70953;SDS011;58618;47.490;8.736;2023-08-01T00:23:34;5.43;;;3.67;;
70953;SDS011;58618;47.490;8.736;2023-08-01T00:26:22;7.53;;;4.20;;
70953;SDS011;58618;47.490;8.736;2023-08-01T00:29:10;6.22;;;3.72;;
70953;SDS011;58618;47.490;8.736;2023-08-01T00:31:57;11.30;;;3.50;;
70953;SDS011;58618;47.490;8.736;2023-08-01T00:34:44;6.55;;;3.70;;
70953;SDS011;58618;47.490;8.736;2023-08-01T00:37:31;6.55;;;4.20;;
70953;SDS011;58618;47.490;8.736;2023-08-01T00:40:19;6.40;;;3.57;;
70953;SDS011;58618;47.490;8.736;2023-08-01T00:43:07;5.95;;;3.42;;
70953;SDS011;58618;47.490;8.736;2023-08-01T00:45:55;5.25;;;3.28;;
70953;SDS011;58618;47.490;8.736;2023-08-01T00:48:46;6.07;;;3.42;;
70953;SDS011;58618;47.490;8.736;2023-08-01T00:51:34;8.13;;;3.70;;
70953;SDS011;58618;47.490;8.736;2023-08-01T00:54:22;5.93;;;3.27;;
70953;SDS011;58618;47.490;8.736;2023-08-01T00:57:09;6.30;;;3.35;;
70953;SDS011;58618;47.490;8.736;2023-08-01T00:59:58;6.68;;;3.15;;
70953;SDS011;58618;47.490;8.736;2023-08-01T01:02:46;6.78;;;3.17;;
70953;SDS011;58618;47.490;8.736;2023-08-01T01:05:35;6.10;;;3.47;;
70953;SDS011;58618;47.490;8.736;2023-08-01T01:08:26;4.73;;;2.97;;
70953;SDS011;58618;47.490;8.736;2023-08-01T01:11:13;8.07;;;3.08;;
70953;SDS011;58618;47.490;8.736;2023-08-01T01:14:00;5.75;;;3.42;;
70953;SDS011;58618;47.490;8.736;2023-08-01T01:16:49;5.22;;;2.83;;
70953;SDS011;58618;47.490;8.736;2023-08-01T01:19:37;9.40;;;3.13;;
70953;SDS011;58618;47.490;8.736;2023-08-01T01:22:26;5.57;;;2.70;;
70953;SDS011;58618;47.490;8.736;2023-08-01T01:25:14;4.80;;;3.15;;
70953;SDS011;58618;47.490;8.736;2023-08-01T01:28:03;6.65;;;2.90;;
70953;SDS011;58618;47.490;8.736;2023-08-01T01:30:51;6.50;;;2.75;;
70953;SDS011;58618;47.490;8.736;2023-08-01T01:33:39;3.42;;;2.65;;
70953;SDS011;58618;47.490;8.736;2023-08-01T01:36:27;5.30;;;2.80;;
70953;SDS011;58618;47.490;8.736;2023-08-01T01:39:16;6.60;;;3.25;;
70953;SDS011;58618;47.490;8.736;2023-08-01T01:42:04;6.07;;;3.03;;
70953;SDS011;58618;47.490;8.736;2023-08-01T01:44:51;5.53;;;2.90;;
70953;SDS011;58618;47.490;8.736;2023-08-01T01:47:40;4.68;;;2.60;;
70953;SDS011;58618;47.490;8.736;2023-08-01T01:50:27;4.07;;;2.70;;
70953;SDS011;58618;47.490;8.736;2023-08-01T01:53:15;6.60;;;2.78;;
70953;SDS011;58618;47.490;8.736;2023-08-01T01:56:03;6.97;;;2.90;;
70953;SDS011;58618;47.490;8.736;2023-08-01T01:58:51;4.65;;;2.78;;
70953;SDS011;58618;47.490;8.736;2023-08-01T02:01:38;4.85;;;2.75;;
70953;SDS011;58618;47.490;8.736;2023-08-01T02:04:25;3.83;;;2.50;;
70953;SDS011;58618;47.490;8.736;2023-08-01T02:07:12;5.07;;;2.78;;
70953;SDS011;58618;47.490;8.736;2023-08-01T02:10:00;5.47;;;3.10;;
70953;SDS011;58618;47.490;8.736;2023-08-01T02:12:48;5.10;;;3.00;;
70953;SDS011;58618;47.490;8.736;2023-08-01T02:15:36;4.68;;;2.85;;
70953;SDS011;58618;47.490;8.736;2023-08-01T02:18:23;5.43;;;2.70;;
70953;SDS011;58618;47.490;8.736;2023-08-01T02:21:10;4.85;;;3.08;;
70953;SDS011;58618;47.490;8.736;2023-08-01T02:23:58;4.57;;;2.90;;
70953;SDS011;58618;47.490;8.736;2023-08-01T02:26:45;4.90;;;2.92;;
70953;SDS011;58618;47.490;8.736;2023-08-01T02:29:33;5.22;;;2.33;;
70953;SDS011;58618;47.490;8.736;2023-08-01T02:32:21;7.30;;;2.90;;
70953;SDS011;58618;47.490;8.736;2023-08-01T02:35:08;4.40;;;2.83;;
70953;SDS011;58618;47.490;8.736;2023-08-01T02:37:55;6.05;;;3.10;;
70953;SDS011;58618;47.490;8.736;2023-08-01T02:40:43;4.15;;;2.72;;
70953;SDS011;58618;47.490;8.736;2023-08-01T02:43:30;4.43;;;2.70;;
70953;SDS011;58618;47.490;8.736;2023-08-01T02:46:18;7.13;;;3.20;;
70953;SDS011;58618;47.490;8.736;2023-08-01T02:49:06;7.35;;;3.17;;
70953;SDS011;58618;47.490;8.736;2023-08-01T02:51:53;6.90;;;2.72;;
70953;SDS011;58618;47.490;8.736;2023-08-01T02:54:40;5.00;;;3.30;;
70953;SDS011;58618;47.490;8.736;2023-08-01T02:57:28;5.15;;;3.20;;
70953;SDS011;58618;47.490;8.736;2023-08-01T03:00:15;4.03;;;3.00;;
70953;SDS011;58618;47.490;8.736;2023-08-01T03:03:04;7.35;;;3.22;;
70953;SDS011;58618;47.490;8.736;2023-08-01T03:05:52;8.70;;;3.60;;
70953;SDS011;58618;47.490;8.736;2023-08-01T03:08:39;6.28;;;3.30;;
70953;SDS011;58618;47.490;8.736;2023-08-01T03:11:26;6.72;;;3.20;;
70953;SDS011;58618;47.490;8.736;2023-08-01T03:14:14;7.73;;;3.23;;
70953;SDS011;58618;47.490;8.736;2023-08-01T03:17:02;5.70;;;3.00;;
70953;SDS011;58618;47.490;8.736;2023-08-01T03:19:51;7.15;;;3.33;;
70953;SDS011;58618;47.490;8.736;2023-08-01T03:22:39;5.75;;;3.30;;
70953;SDS011;58618;47.490;8.736;2023-08-01T03:25:27;6.47;;;3.20;;
70953;SDS011;58618;47.490;8.736;2023-08-01T03:28:14;7.23;;;3.17;;
70953;SDS011;58618;47.490;8.736;2023-08-01T03:31:01;9.18;;;3.05;;
70953;SDS011;58618;47.490;8.736;2023-08-01T03:33:49;6.63;;;3.20;;
70953;SDS011;58618;47.490;8.736;2023-08-01T03:36:37;6.15;;;3.05;;
70953;SDS011;58618;47.490;8.736;2023-08-01T03:39:25;5.55;;;3.33;;
70953;SDS011;58618;47.490;8.736;2023-08-01T03:42:12;6.60;;;3.40;;
70953;SDS011;58618;47.490;8.736;2023-08-01T03:44:59;6.68;;;3.42;;
70953;SDS011;58618;47.490;8.736;2023-08-01T03:47:47;5.63;;;3.35;;
70953;SDS011;58618;47.490;8.736;2023-08-01T03:50:34;5.75;;;3.33;;
70953;SDS011;58618;47.490;8.736;2023-08-01T03:53:23;7.10;;;3.17;;
70953;SDS011;58618;47.490;8.736;2023-08-01T03:56:10;6.33;;;3.10;;
70953;SDS011;58618;47.490;8.736;2023-08-01T03:58:57;5.88;;;3.58;;
70953;SDS011;58618;47.490;8.736;2023-08-01T04:01:45;7.00;;;3.40;;
70953;SDS011;58618;47.490;8.736;2023-08-01T04:04:32;5.65;;;3.55;;
70953;SDS011;58618;47.490;8.736;2023-08-01T04:07:19;7.55;;;3.25;;
70953;SDS011;58618;47.490;8.736;2023-08-01T04:10:08;7.00;;;3.37;;
70953;SDS011;58618;47.490;8.736;2023-08-01T04:12:56;5.25;;;3.50;;
70953;SDS011;58618;47.490;8.736;2023-08-01T04:15:43;5.88;;;3.45;;
70953;SDS011;58618;47.490;8.736;2023-08-01T04:18:31;7.55;;;3.50;;
70953;SDS011;58618;47.490;8.736;2023-08-01T04:21:18;7.45;;;3.63;;
70953;SDS011;58618;47.490;8.736;2023-08-01T04:24:05;6.37;;;3.40;;
70953;SDS011;58618;47.490;8.736;2023-08-01T04:26:54;6.95;;;3.55;;
70953;SDS011;58618;47.490;8.736;2023-08-01T04:29:41;7.30;;;3.47;;
70953;SDS011;58618;47.490;8.736;2023-08-01T04:32:29;6.18;;;3.63;;
70953;SDS011;58618;47.490;8.736;2023-08-01T04:35:16;6.65;;;3.70;;
70953;SDS011;58618;47.490;8.736;2023-08-01T04:38:03;5.30;;;3.07;;
70953;SDS011;58618;47.490;8.736;2023-08-01T04:40:50;6.28;;;3.90;;
70953;SDS011;58618;47.490;8.736;2023-08-01T04:43:39;7.05;;;4.00;;
70953;SDS011;58618;47.490;8.736;2023-08-01T04:46:26;6.20;;;3.53;;
70953;SDS011;58618;47.490;8.736;2023-08-01T04:49:14;5.32;;;3.63;;
70953;SDS011;58618;47.490;8.736;2023-08-01T04:52:01;7.43;;;3.80;;
70953;SDS011;58618;47.490;8.736;2023-08-01T04:54:48;6.68;;;3.53;;
70953;SDS011;58618;47.490;8.736;2023-08-01T04:57:36;6.40;;;3.50;;
70953;SDS011;58618;47.490;8.736;2023-08-01T05:00:24;6.82;;;3.40;;
70953;SDS011;58618;47.490;8.736;2023-08-01T05:03:12;7.47;;;3.10;;
70953;SDS011;58618;47.490;8.736;2023-08-01T05:05:59;5.53;;;3.20;;
70953;SDS011;58618;47.490;8.736;2023-08-01T05:08:46;5.97;;;3.35;;
70953;SDS011;58618;47.490;8.736;2023-08-01T05:11:34;6.32;;;3.65;;
70953;SDS011;58618;47.490;8.736;2023-08-01T05:14:21;8.88;;;3.72;;
70953;SDS011;58618;47.490;8.736;2023-08-01T05:17:10;6.55;;;3.78;;
70953;SDS011;58618;47.490;8.736;2023-08-01T05:19:57;8.70;;;4.00;;
70953;SDS011;58618;47.490;8.736;2023-08-01T05:22:44;7.20;;;3.67;;
70953;SDS011;58618;47.490;8.736;2023-08-01T05:25:32;7.57;;;3.70;;
70953;SDS011;58618;47.490;8.736;2023-08-01T05:28:19;6.35;;;3.85;;
70953;SDS011;58618;47.490;8.736;2023-08-01T05:31:06;7.22;;;3.85;;
70953;SDS011;58618;47.490;8.736;2023-08-01T05:33:55;7.00;;;3.63;;
70953;SDS011;58618;47.490;8.736;2023-08-01T05:36:42;5.90;;;3.85;;
70953;SDS011;58618;47.490;8.736;2023-08-01T05:39:29;6.57;;;3.72;;
70953;SDS011;58618;47.490;8.736;2023-08-01T05:42:17;6.10;;;3.75;;
70953;SDS011;58618;47.490;8.736;2023-08-01T05:45:04;9.20;;;4.38;;
70953;SDS011;58618;47.490;8.736;2023-08-01T05:47:52;6.03;;;3.67;;
70953;SDS011;58618;47.490;8.736;2023-08-01T05:50:41;6.00;;;3.30;;
70953;SDS011;58618;47.490;8.736;2023-08-01T05:53:28;6.78;;;3.40;;
70953;SDS011;58618;47.490;8.736;2023-08-01T05:56:16;9.95;;;3.20;;
70953;SDS011;58618;47.490;8.736;2023-08-01T05:59:03;6.28;;;3.05;;
70953;SDS011;58618;47.490;8.736;2023-08-01T06:01:50;5.53;;;3.10;;
70953;SDS011;58618;47.490;8.736;2023-08-01T06:04:38;5.57;;;3.05;;
70953;SDS011;58618;47.490;8.736;2023-08-01T06:07:26;8.13;;;3.20;;
70953;SDS011;58618;47.490;8.736;2023-08-01T06:10:13;7.15;;;3.45;;
70953;SDS011;58618;47.490;8.736;2023-08-01T06:13:01;6.63;;;3.38;;
70953;SDS011;58618;47.490;8.736;2023-08-01T06:15:48;5.83;;;3.30;;
70953;SDS011;58618;47.490;8.736;2023-08-01T06:18:35;7.07;;;3.58;;
70953;SDS011;58618;47.490;8.736;2023-08-01T06:21:22;6.03;;;3.08;;
70953;SDS011;58618;47.490;8.736;2023-08-01T06:24:11;6.97;;;3.63;;
70953;SDS011;58618;47.490;8.736;2023-08-01T06:26:59;5.97;;;3.17;;
70953;SDS011;58618;47.490;8.736;2023-08-01T06:29:47;5.00;;;3.03;;
70953;SDS011;58618;47.490;8.736;2023-08-01T06:32:34;6.40;;;3.30;;
70953;SDS011;58618;47.490;8.736;2023-08-01T06:35:22;5.47;;;3.30;;
70953;SDS011;58618;47.490;8.736;2023-08-01T06:38:09;6.63;;;2.97;;
70953;SDS011;58618;47.490;8.736;2023-08-01T06:40:58;8.05;;;3.65;;
70953;SDS011;58618;47.490;8.736;2023-08-01T06:43:45;4.83;;;3.20;;
70953;SDS011;58618;47.490;8.736;2023-08-01T06:46:32;5.32;;;3.35;;
70953;SDS011;58618;47.490;8.736;2023-08-01T06:49:20;7.03;;;3.42;;
70953;SDS011;58618;47.490;8.736;2023-08-01T06:52:07;5.53;;;3.17;;
70953;SDS011;58618;47.490;8.736;2023-08-01T06:54:54;5.82;;;3.20;;
70953;SDS011;58618;47.490;8.736;2023-08-01T06:57:43;5.80;;;3.13;;
70953;SDS011;58618;47.490;8.736;2023-08-01T07:00:30;7.32;;;3.05;;
70953;SDS011;58618;47.490;8.736;2023-08-01T07:03:18;5.40;;;3.05;;
70953;SDS011;58618;47.490;8.736;2023-08-01T07:06:05;7.47;;;3.08;;
70953;SDS011;58618;47.490;8.736;2023-08-01T07:08:52;7.13;;;3.20;;
70953;SDS011;58618;47.490;8.736;2023-08-01T07:11:40;4.47;;;2.57;;
70953;SDS011;58618;47.490;8.736;2023-08-01T07:14:28;6.22;;;3.28;;
70953;SDS011;58618;47.490;8.736;2023-08-01T07:17:15;7.00;;;3.05;;
70953;SDS011;58618;47.490;8.736;2023-08-01T07:20:03;5.13;;;3.00;;
70953;SDS011;58618;47.490;8.736;2023-08-01T07:22:51;7.22;;;2.97;;
70953;SDS011;58618;47.490;8.736;2023-08-01T07:25:38;8.70;;;3.20;;
70953;SDS011;58618;47.490;8.736;2023-08-01T07:28:25;9.65;;;2.90;;
70953;SDS011;58618;47.490;8.736;2023-08-01T07:31:14;7.03;;;3.10;;
70953;SDS011;58618;47.490;8.736;2023-08-01T07:34:01;5.82;;;2.60;;
70953;SDS011;58618;47.490;8.736;2023-08-01T07:36:49;5.28;;;2.80;;
70953;SDS011;58618;47.490;8.736;2023-08-01T07:39:36;8.90;;;3.07;;
70953;SDS011;58618;47.490;8.736;2023-08-01T07:42:23;7.53;;;2.88;;
70953;SDS011;58618;47.490;8.736;2023-08-01T07:45:11;6.13;;;2.63;;
70953;SDS011;58618;47.490;8.736;2023-08-01T07:47:59;3.90;;;2.63;;
70953;SDS011;58618;47.490;8.736;2023-08-01T07:50:47;6.60;;;3.35;;
70953;SDS011;58618;47.490;8.736;2023-08-01T07:53:34;5.40;;;2.47;;
70953;SDS011;58618;47.490;8.736;2023-08-01T07:56:22;6.05;;;2.90;;
70953;SDS011;58618;47.490;8.736;2023-08-01T07:59:09;4.90;;;2.72;;
70953;SDS011;58618;47.490;8.736;2023-08-01T08:01:57;4.13;;;2.90;;
70953;SDS011;58618;47.490;8.736;2023-08-01T08:04:45;5.47;;;2.65;;
70953;SDS011;58618;47.490;8.736;2023-08-01T08:07:33;5.50;;;2.80;;
70953;SDS011;58618;47.490;8.736;2023-08-01T08:10:20;4.40;;;2.58;;
70953;SDS011;58618;47.490;8.736;2023-08-01T08:13:07;5.75;;;2.90;;
70953;SDS011;58618;47.490;8.736;2023-08-01T08:15:55;4.47;;;2.67;;
70953;SDS011;58618;47.490;8.736;2023-08-01T08:18:42;5.55;;;3.08;;
70953;SDS011;58618;47.490;8.736;2023-08-01T08:21:31;5.63;;;2.53;;
70953;SDS011;58618;47.490;8.736;2023-08-01T08:24:18;5.20;;;2.97;;
70953;SDS011;58618;47.490;8.736;2023-08-01T08:27:06;6.85;;;2.65;;
70953;SDS011;58618;47.490;8.736;2023-08-01T08:29:53;4.47;;;2.50;;
70953;SDS011;58618;47.490;8.736;2023-08-01T08:32:41;5.70;;;2.75;;
70953;SDS011;58618;47.490;8.736;2023-08-01T08:35:28;6.27;;;2.70;;
70953;SDS011;58618;47.490;8.736;2023-08-01T08:38:17;6.22;;;2.55;;
70953;SDS011;58618;47.490;8.736;2023-08-01T08:41:07;4.82;;;2.58;;
70953;SDS011;58618;47.490;8.736;2023-08-01T08:43:56;5.43;;;3.03;;
70953;SDS011;58618;47.490;8.736;2023-08-01T08:46:44;4.85;;;2.75;;
70953;SDS011;58618;47.490;8.736;2023-08-01T08:49:36;5.03;;;2.80;;
70953;SDS011;58618;47.490;8.736;2023-08-01T08:52:25;5.95;;;2.60;;
70953;SDS011;58618;47.490;8.736;2023-08-01T08:55:13;5.43;;;2.90;;
70953;SDS011;58618;47.490;8.736;2023-08-01T08:58:02;5.38;;;3.00;;
70953;SDS011;58618;47.490;8.736;2023-08-01T09:00:51;6.93;;;3.10;;
70953;SDS011;58618;47.490;8.736;2023-08-01T09:03:38;4.97;;;2.73;;
70953;SDS011;58618;47.490;8.736;2023-08-01T09:06:28;5.00;;;2.90;;
70953;SDS011;58618;47.490;8.736;2023-08-01T09:09:17;8.02;;;4.20;;
70953;SDS011;58618;47.490;8.736;2023-08-01T09:12:06;4.93;;;2.90;;
70953;SDS011;58618;47.490;8.736;2023-08-01T09:14:56;4.65;;;2.83;;
70953;SDS011;58618;47.490;8.736;2023-08-01T09:17:47;7.20;;;3.17;;
70953;SDS011;58618;47.490;8.736;2023-08-01T09:20:39;5.93;;;3.08;;
70953;SDS011;58618;47.490;8.736;2023-08-01T09:23:28;5.15;;;2.97;;
70953;SDS011;58618;47.490;8.736;2023-08-01T09:26:16;5.63;;;3.20;;
70953;SDS011;58618;47.490;8.736;2023-08-01T09:29:06;5.35;;;2.97;;
70953;SDS011;58618;47.490;8.736;2023-08-01T09:31:54;7.30;;;3.40;;
70953;SDS011;58618;47.490;8.736;2023-08-01T09:34:41;5.97;;;2.92;;
70953;SDS011;58618;47.490;8.736;2023-08-01T09:37:37;5.88;;;2.75;;
70953;SDS011;58618;47.490;8.736;2023-08-01T09:40:25;6.03;;;2.95;;
70953;SDS011;58618;47.490;8.736;2023-08-01T09:43:23;6.15;;;2.80;;
70953;SDS011;58618;47.490;8.736;2023-08-01T09:46:11;10.83;;;2.83;;
70953;SDS011;58618;47.490;8.736;2023-08-01T09:49:06;5.90;;;2.75;;
70953;SDS011;58618;47.490;8.736;2023-08-01T09:51:55;5.95;;;3.00;;
70953;SDS011;58618;47.490;8.736;2023-08-01T09:54:43;7.45;;;3.53;;
70953;SDS011;58618;47.490;8.736;2023-08-01T09:57:31;5.40;;;2.90;;
70953;SDS011;58618;47.490;8.736;2023-08-01T10:00:19;4.90;;;2.97;;
70953;SDS011;58618;47.490;8.736;2023-08-01T10:03:07;6.25;;;3.00;;
70953;SDS011;58618;47.490;8.736;2023-08-01T10:05:55;5.53;;;3.10;;
70953;SDS011;58618;47.490;8.736;2023-08-01T10:08:43;9.48;;;3.50;;
70953;SDS011;58618;47.490;8.736;2023-08-01T10:11:33;5.47;;;3.13;;
70953;SDS011;58618;47.490;8.736;2023-08-01T10:14:21;5.73;;;3.00;;
70953;SDS011;58618;47.490;8.736;2023-08-01T10:17:09;6.15;;;3.30;;
70953;SDS011;58618;47.490;8.736;2023-08-01T10:19:59;6.30;;;3.15;;
70953;SDS011;58618;47.490;8.736;2023-08-01T10:22:47;6.07;;;2.90;;
70953;SDS011;58618;47.490;8.736;2023-08-01T10:25:35;4.72;;;2.72;;
70953;SDS011;58618;47.490;8.736;2023-08-01T10:28:30;5.90;;;3.00;;
70953;SDS011;58618;47.490;8.736;2023-08-01T10:31:19;6.57;;;2.88;;
70953;SDS011;58618;47.490;8.736;2023-08-01T10:34:12;6.13;;;2.92;;
70953;SDS011;58618;47.490;8.736;2023-08-01T10:37:01;6.55;;;2.72;;
70953;SDS011;58618;47.490;8.736;2023-08-01T10:39:55;5.80;;;2.97;;
70953;SDS011;58618;47.490;8.736;2023-08-01T10:42:44;7.07;;;3.00;;
70953;SDS011;58618;47.490;8.736;2023-08-01T10:45:32;5.60;;;2.72;;
70953;SDS011;58618;47.490;8.736;2023-08-01T10:48:20;5.28;;;2.90;;
70953;SDS011;58618;47.490;8.736;2023-08-01T10:51:07;5.72;;;2.83;;
70953;SDS011;58618;47.490;8.736;2023-08-01T10:53:56;4.53;;;2.20;;
70953;SDS011;58618;47.490;8.736;2023-08-01T10:56:44;4.27;;;2.20;;
70953;SDS011;58618;47.490;8.736;2023-08-01T10:59:32;4.43;;;2.20;;
70953;SDS011;58618;47.490;8.736;2023-08-01T11:02:20;3.15;;;1.90;;
70953;SDS011;58618;47.490;8.736;2023-08-01T11:05:08;4.85;;;2.00;;
70953;SDS011;58618;47.490;8.736;2023-08-01T11:07:55;3.33;;;1.77;;
70953;SDS011;58618;47.490;8.736;2023-08-01T11:10:48;2.53;;;1.60;;
70953;SDS011;58618;47.490;8.736;2023-08-01T11:13:36;2.88;;;1.80;;
70953;SDS011;58618;47.490;8.736;2023-08-01T11:16:23;4.95;;;1.95;;
70953;SDS011;58618;47.490;8.736;2023-08-01T11:19:17;2.55;;;1.48;;
70953;SDS011;58618;47.490;8.736;2023-08-01T11:22:08;2.47;;;1.30;;
70953;SDS011;58618;47.490;8.736;2023-08-01T11:24:57;2.70;;;1.43;;
70953;SDS011;58618;47.490;8.736;2023-08-01T11:27:45;3.13;;;1.63;;
70953;SDS011;58618;47.490;8.736;2023-08-01T11:30:33;2.90;;;1.50;;
70953;SDS011;58618;47.490;8.736;2023-08-01T11:33:21;2.53;;;1.50;;
70953;SDS011;58618;47.490;8.736;2023-08-01T11:36:09;3.78;;;1.50;;
70953;SDS011;58618;47.490;8.736;2023-08-01T11:38:57;1.80;;;1.13;;
70953;SDS011;58618;47.490;8.736;2023-08-01T11:41:46;2.75;;;1.55;;
70953;SDS011;58618;47.490;8.736;2023-08-01T11:44:34;2.35;;;1.30;;
70953;SDS011;58618;47.490;8.736;2023-08-01T11:47:22;2.63;;;1.48;;
70953;SDS011;58618;47.490;8.736;2023-08-01T11:50:10;2.10;;;1.30;;
70953;SDS011;58618;47.490;8.736;2023-08-01T11:52:57;6.03;;;4.07;;
70953;SDS011;58618;47.490;8.736;2023-08-01T11:55:44;3.38;;;1.80;;
70953;SDS011;58618;47.490;8.736;2023-08-01T11:58:32;2.42;;;1.50;;
70953;SDS011;58618;47.490;8.736;2023-08-01T12:01:22;1.90;;;1.17;;
70953;SDS011;58618;47.490;8.736;2023-08-01T12:04:09;2.40;;;1.40;;
70953;SDS011;58618;47.490;8.736;2023-08-01T12:06:57;2.63;;;1.30;;
70953;SDS011;58618;47.490;8.736;2023-08-01T12:09:44;2.10;;;1.20;;
70953;SDS011;58618;47.490;8.736;2023-08-01T12:12:31;3.17;;;1.40;;
70953;SDS011;58618;47.490;8.736;2023-08-01T12:15:19;2.92;;;1.20;;
70953;SDS011;58618;47.490;8.736;2023-08-01T12:18:07;2.35;;;1.40;;
70953;SDS011;58618;47.490;8.736;2023-08-01T12:20:55;1.73;;;1.10;;
70953;SDS011;58618;47.490;8.736;2023-08-01T12:23:42;2.00;;;1.17;;
70953;SDS011;58618;47.490;8.736;2023-08-01T12:26:30;2.75;;;1.10;;
70953;SDS011;58618;47.490;8.736;2023-08-01T12:29:17;1.63;;;1.20;;
70953;SDS011;58618;47.490;8.736;2023-08-01T12:32:04;2.13;;;1.25;;
70953;SDS011;58618;47.490;8.736;2023-08-01T12:34:54;2.00;;;1.10;;
70953;SDS011;58618;47.490;8.736;2023-08-01T12:37:42;1.70;;;1.10;;
70953;SDS011;58618;47.490;8.736;2023-08-01T12:40:29;1.95;;;1.33;;
70953;SDS011;58618;47.490;8.736;2023-08-01T12:43:16;2.15;;;1.10;;
70953;SDS011;58618;47.490;8.736;2023-08-01T12:46:04;3.08;;;1.30;;
70953;SDS011;58618;47.490;8.736;2023-08-01T12:48:51;2.27;;;1.40;;
70953;SDS011;58618;47.490;8.736;2023-08-01T12:51:40;2.58;;;1.40;;
70953;SDS011;58618;47.490;8.736;2023-08-01T12:54:27;1.77;;;1.25;;
70953;SDS011;58618;47.490;8.736;2023-08-01T12:57:15;2.97;;;1.40;;
70953;SDS011;58618;47.490;8.736;2023-08-01T13:00:02;2.60;;;1.50;;
70953;SDS011;58618;47.490;8.736;2023-08-01T13:02:50;2.17;;;1.30;;
70953;SDS011;58618;47.490;8.736;2023-08-01T13:05:38;2.45;;;1.35;;
70953;SDS011;58618;47.490;8.736;2023-08-01T13:08:28;2.42;;;1.50;;
70953;SDS011;58618;47.490;8.736;2023-08-01T13:11:16;1.85;;;1.25;;
70953;SDS011;58618;47.490;8.736;2023-08-01T13:14:03;2.63;;;1.30;;
70953;SDS011;58618;47.490;8.736;2023-08-01T13:16:50;2.37;;;1.20;;
70953;SDS011;58618;47.490;8.736;2023-08-01T13:19:38;2.38;;;1.20;;
70953;SDS011;58618;47.490;8.736;2023-08-01T13:22:25;2.88;;;1.67;;
70953;SDS011;58618;47.490;8.736;2023-08-01T13:25:14;3.13;;;1.70;;
70953;SDS011;58618;47.490;8.736;2023-08-01T13:28:01;2.10;;;1.40;;
70953;SDS011;58618;47.490;8.736;2023-08-01T13:30:49;4.13;;;1.80;;
70953;SDS011;58618;47.490;8.736;2023-08-01T13:33:36;2.45;;;1.50;;
70953;SDS011;58618;47.490;8.736;2023-08-01T13:36:24;3.42;;;1.73;;
70953;SDS011;58618;47.490;8.736;2023-08-01T13:39:11;2.47;;;1.40;;
70953;SDS011;58618;47.490;8.736;2023-08-01T13:42:00;2.58;;;1.60;;
70953;SDS011;58618;47.490;8.736;2023-08-01T13:44:47;2.90;;;1.80;;
70953;SDS011;58618;47.490;8.736;2023-08-01T13:47:34;2.83;;;1.70;;
70953;SDS011;58618;47.490;8.736;2023-08-01T13:50:21;2.35;;;1.65;;
70953;SDS011;58618;47.490;8.736;2023-08-01T13:53:09;3.03;;;1.80;;
70953;SDS011;58618;47.490;8.736;2023-08-01T13:55:59;2.80;;;1.70;;
70953;SDS011;58618;47.490;8.736;2023-08-01T13:58:48;3.63;;;1.47;;
70953;SDS011;58618;47.490;8.736;2023-08-01T14:01:35;2.20;;;1.30;;
70953;SDS011;58618;47.490;8.736;2023-08-01T14:04:24;3.45;;;1.63;;
70953;SDS011;58618;47.490;8.736;2023-08-01T14:07:11;2.42;;;1.10;;
70953;SDS011;58618;47.490;8.736;2023-08-01T14:09:58;2.22;;;1.45;;
70953;SDS011;58618;47.490;8.736;2023-08-01T14:12:46;2.10;;;1.37;;
70953;SDS011;58618;47.490;8.736;2023-08-01T14:15:34;4.43;;;1.65;;
70953;SDS011;58618;47.490;8.736;2023-08-01T14:18:22;1.95;;;1.10;;
70953;SDS011;58618;47.490;8.736;2023-08-01T14:21:09;2.80;;;1.02;;
70953;SDS011;58618;47.490;8.736;2023-08-01T14:23:56;2.15;;;1.30;;
70953;SDS011;58618;47.490;8.736;2023-08-01T14:26:44;2.87;;;1.10;;
70953;SDS011;58618;47.490;8.736;2023-08-01T14:29:31;1.70;;;1.15;;
70953;SDS011;58618;47.490;8.736;2023-08-01T14:32:19;1.60;;;1.00;;
70953;SDS011;58618;47.490;8.736;2023-08-01T14:35:07;2.30;;;0.90;;
70953;SDS011;58618;47.490;8.736;2023-08-01T14:37:55;1.50;;;1.02;;
70953;SDS011;58618;47.490;8.736;2023-08-01T14:40:42;1.50;;;1.00;;
70953;SDS011;58618;47.490;8.736;2023-08-01T14:43:30;2.55;;;1.10;;
70953;SDS011;58618;47.490;8.736;2023-08-01T14:46:17;1.70;;;1.00;;
70953;SDS011;58618;47.490;8.736;2023-08-01T14:49:06;2.08;;;0.93;;
70953;SDS011;58618;47.490;8.736;2023-08-01T14:51:53;2.00;;;1.25;;
70953;SDS011;58618;47.490;8.736;2023-08-01T14:54:40;2.33;;;1.07;;
70953;SDS011;58618;47.490;8.736;2023-08-01T14:57:28;1.50;;;1.08;;
70953;SDS011;58618;47.490;8.736;2023-08-01T15:00:15;2.42;;;1.00;;
70953;SDS011;58618;47.490;8.736;2023-08-01T15:03:03;3.25;;;1.00;;
70953;SDS011;58618;47.490;8.736;2023-08-01T15:05:51;1.50;;;1.02;;
70953;SDS011;58618;47.490;8.736;2023-08-01T15:08:39;2.57;;;1.10;;
70953;SDS011;58618;47.490;8.736;2023-08-01T15:11:26;1.95;;;1.20;;
70953;SDS011;58618;47.490;8.736;2023-08-01T15:14:13;1.30;;;1.10;;
70953;SDS011;58618;47.490;8.736;2023-08-01T15:17:00;2.88;;;1.05;;
70953;SDS011;58618;47.490;8.736;2023-08-01T15:19:48;1.70;;;1.00;;
70953;SDS011;58618;47.490;8.736;2023-08-01T15:22:37;2.80;;;0.93;;
70953;SDS011;58618;47.490;8.736;2023-08-01T15:25:24;1.73;;;1.00;;
70953;SDS011;58618;47.490;8.736;2023-08-01T15:28:11;1.20;;;0.90;;
70953;SDS011;58618;47.490;8.736;2023-08-01T15:31:02;2.03;;;1.10;;
70953;SDS011;58618;47.490;8.736;2023-08-01T15:33:51;1.70;;;0.93;;
70953;SDS011;58618;47.490;8.736;2023-08-01T15:36:38;1.60;;;0.90;;
70953;SDS011;58618;47.490;8.736;2023-08-01T15:39:27;2.05;;;1.00;;
70953;SDS011;58618;47.490;8.736;2023-08-01T15:42:14;1.33;;;0.90;;
70953;SDS011;58618;47.490;8.736;2023-08-01T15:45:01;1.38;;;0.95;;
70953;SDS011;58618;47.490;8.736;2023-08-01T15:47:49;1.58;;;1.20;;
70953;SDS011;58618;47.490;8.736;2023-08-01T15:50:37;2.17;;;1.10;;
70953;SDS011;58618;47.490;8.736;2023-08-01T15:53:24;1.92;;;0.90;;
70953;SDS011;58618;47.490;8.736;2023-08-01T15:56:13;1.42;;;1.00;;
70953;SDS011;58618;47.490;8.736;2023-08-01T15:59:00;1.38;;;0.90;;
70953;SDS011;58618;47.490;8.736;2023-08-01T16:01:47;1.60;;;1.00;;
70953;SDS011;58618;47.490;8.736;2023-08-01T16:04:35;2.27;;;1.10;;
70953;SDS011;58618;47.490;8.736;2023-08-01T16:07:22;1.63;;;1.08;;
70953;SDS011;58618;47.490;8.736;2023-08-01T16:10:09;1.77;;;0.98;;
70953;SDS011;58618;47.490;8.736;2023-08-01T16:12:58;1.80;;;1.20;;
70953;SDS011;58618;47.490;8.736;2023-08-01T16:15:45;1.63;;;0.98;;
70953;SDS011;58618;47.490;8.736;2023-08-01T16:18:33;1.60;;;1.13;;
70953;SDS011;58618;47.490;8.736;2023-08-01T16:21:20;3.13;;;2.40;;
70953;SDS011;58618;47.490;8.736;2023-08-01T16:24:07;1.60;;;1.10;;
70953;SDS011;58618;47.490;8.736;2023-08-01T16:26:55;1.40;;;1.02;;
70953;SDS011;58618;47.490;8.736;2023-08-01T16:29:44;2.00;;;1.48;;
70953;SDS011;58618;47.490;8.736;2023-08-01T16:32:31;5.00;;;3.43;;
70953;SDS011;58618;47.490;8.736;2023-08-01T16:35:18;2.35;;;1.40;;
70953;SDS011;58618;47.490;8.736;2023-08-01T16:38:05;2.78;;;1.77;;
70953;SDS011;58618;47.490;8.736;2023-08-01T16:40:53;1.33;;;1.10;;
70953;SDS011;58618;47.490;8.736;2023-08-01T16:43:40;1.85;;;1.08;;
70953;SDS011;58618;47.490;8.736;2023-08-01T16:46:29;2.60;;;1.77;;
70953;SDS011;58618;47.490;8.736;2023-08-01T16:49:16;7.85;;;6.45;;
70953;SDS011;58618;47.490;8.736;2023-08-01T16:52:04;2.75;;;1.30;;